TAF and METAR

No METAR available for Nakhon Ratchasima Airport

TAF for Nakhon Ratchasima Airport

TAF VTUQ 011100Z 0112/0212 20005KT 9000 FEW030
Report created 1. apr 13:00

between 1. apr 14:00 - 2. apr 14:00

wind 5 knots from SSW (200°) visibility 9000 meters some clouds (~25% cover) at 3000 feet
Nakhon Ratchasima Airport in Thailand at 234m

Latest 5 airports